logo dgac
Martes 28 de Mayo del 2024
Buscar por aerodromo o helipuerto
Ingrese nombre de aeródromo, localidad o designador OACI:

Aeródromo: María Dolores (PUB) (SCGE)

Ubicación: Los Ángeles, VIII Región, Chile (37º 24' 07'' S, 72º 25' 32'' W) Ver ubicación en el mapa

Pistas

Luces
Orientación Dimensión Pendiente Superficie Resistencia APCH THR RWY PAPI
18/36 1700 x 30 0,10 ASPH PCN 34 F/A/X/T No
Horas de operación HJ
Elevación 114 m / 374 ft
Otra Información Adm : D.G.A.C.
Uso : PUB
TEL ARO: +56 413835193 +56413835194
TEL TWR AFIS: +56413835192
Ubicado a 10 km NW de Los Ángeles
email : aro.mdolores@dgac.gob.cl

PAPI RWY36 3.4° - PAPI RWY18 3.0°

Otra información ver AIP-Chile Volumen I AD 3.9-10.8-L
CCCM/FCCV Descargar CCCM/FCCV
andera de Chile
Mapa de María Dolores (PUB) (SCGE)

Último METAR

METAR SCGE 272300Z 13001KT 9999 FEW040 BKN200 07/06 Q1020

Último TAF

No hay tafs registrados para este aeródromo

Últimas fotos cámaras

Imagen aerodromo María Dolores (PUB) (SCGE) Sur tomada el 28-05-2024 07:56:48 Imagen aerodromo María Dolores (PUB) (SCGE) Norte tomada el 28-05-2024 07:56:47

Último NOTAM

C2312/24 NOTAMN Q)SCEZ/QLIAS/IV/BO/A/000/999/3724S07226W005 A)SCGE B)2405271730 C)2408272330 E)REIL RWY 18/36 U/S